Terminal Aerodrome Forecast
Issued by NWS Louisville, KY

Home | Current Version | Previous Version | Text Only | Print | Product List | Glossary On
Versions: 1 2 3 4 5 6 7 8 9 10 11 12 13 14 15 16 17 18 19 20
000
FTUS43 KLMK 271300 AAA
TAFSDF
TAF AMD
KSDF 271342Z 2714/2818 12009KT P6SM VCTS BKN040CB
      TEMPO 2714/2715 2SM TSRA BKN025CB
     FM271500 27019G27KT P6SM VCTS BKN050CB
     FM280000 33010KT P6SM SCT040=

USA.gov is the U.S. government's official web portal to all federal, state and local government web resources and services.